Bond, Louisiana
Current Conditions -  °F | °C
As of 7:15 AM on Tuesday 21 Oct 2014 (Local Time) from KACP Reporting Station
Clear Clear  
Wind Chill: 51°   Ceiling: Unl
Heat Index: 51°   Visibility: 7mi
Dew Point: 49°   Wind: 0mph
Humidity: 95%   Direction: NA
Pressure: 30.06"   Gusts: NA
Location:  30.8164°N, 92.6914°W
Report Text: KACP 211215Z AUTO 00000KT 7SM CLR 10/10 A3006 RMK AO2 T01030096
Loading
Personal Weather Stations






























Interactive Weather Map
Tropical Storm Tracking
New forecast layout! Learn more

10-Day Weather Forecast

Advertisements
Track Severe Weather on mobile